createdAt,value
2019-06-15T00:01:58.031Z,21.44
2019-06-15T00:04:30.302Z,21.48
2019-06-15T00:07:03.413Z,21.52
2019-06-15T00:09:43.459Z,21.46
2019-06-15T00:12:15.154Z,21.47
2019-06-15T00:14:47.363Z,21.46
2019-06-15T00:17:19.197Z,21.40
2019-06-15T00:19:51.723Z,21.37
2019-06-15T00:22:24.016Z,21.43
2019-06-15T00:24:55.934Z,21.41
2019-06-15T00:27:27.651Z,21.41
2019-06-15T00:29:59.474Z,21.37
2019-06-15T00:32:31.279Z,21.39
2019-06-15T00:35:03.427Z,21.45
2019-06-15T00:37:35.363Z,21.49
2019-06-15T00:40:08.694Z,21.46
2019-06-15T00:42:40.561Z,21.44
2019-06-15T00:45:12.350Z,21.44
2019-06-15T00:47:44.502Z,21.41
2019-06-15T00:50:17.729Z,21.43
2019-06-15T00:52:49.364Z,21.43
2019-06-15T00:55:21.130Z,21.41
2019-06-15T00:57:52.828Z,21.45
2019-06-15T01:00:26.310Z,21.46
2019-06-15T01:02:57.968Z,21.38
2019-06-15T01:05:31.102Z,21.43
2019-06-15T01:08:03.365Z,21.31
2019-06-15T01:10:36.297Z,21.35
2019-06-15T01:13:08.002Z,21.32
2019-06-15T01:15:39.837Z,21.31
2019-06-15T01:18:12.251Z,21.26
2019-06-15T01:20:43.999Z,21.31
2019-06-15T01:23:15.676Z,21.24
2019-06-15T01:25:47.630Z,21.23
2019-06-15T01:28:20.082Z,21.23
2019-06-15T01:30:53.054Z,21.21
2019-06-15T01:33:24.942Z,21.16
2019-06-15T01:35:56.655Z,21.12
2019-06-15T01:38:28.436Z,21.03
2019-06-15T01:41:00.875Z,21.03
2019-06-15T01:43:32.625Z,21.07
2019-06-15T01:46:04.506Z,21.02
2019-06-15T01:48:36.330Z,21.04
2019-06-15T01:51:08.418Z,20.96
2019-06-15T01:53:40.113Z,20.98
2019-06-15T01:56:11.873Z,20.99
2019-06-15T01:58:43.773Z,20.87
2019-06-15T02:01:15.743Z,20.92
2019-06-15T02:03:48.472Z,20.86
2019-06-15T02:06:20.189Z,20.85
2019-06-15T02:08:52.319Z,20.73
2019-06-15T02:11:24.493Z,20.68
2019-06-15T02:13:58.013Z,20.72
2019-06-15T02:16:30.383Z,20.71
2019-06-15T02:19:02.436Z,20.71
2019-06-15T02:21:35.524Z,20.65
2019-06-15T02:24:07.618Z,20.65
2019-06-15T02:26:40.208Z,20.52
2019-06-15T02:29:11.997Z,20.50
2019-06-15T02:31:43.778Z,20.44
2019-06-15T02:34:15.686Z,20.48
2019-06-15T02:36:47.349Z,20.45
2019-06-15T02:39:20.214Z,20.42
2019-06-15T02:41:52.939Z,20.47
2019-06-15T02:44:27.293Z,20.45
2019-06-15T02:46:59.185Z,20.37
2019-06-15T02:49:32.095Z,20.43
2019-06-15T02:52:04.115Z,20.31
2019-06-15T02:54:35.824Z,20.36
2019-06-15T02:57:08.187Z,20.41
2019-06-15T02:59:40.084Z,20.46
2019-06-15T03:02:13.561Z,20.41
2019-06-15T03:04:46.293Z,20.45
2019-06-15T03:07:18.308Z,20.50
2019-06-15T03:09:51.334Z,20.55
2019-06-15T03:12:23.526Z,20.63
2019-06-15T03:14:57.526Z,20.63
2019-06-15T03:17:29.211Z,20.75
2019-06-15T03:20:01.397Z,20.83
2019-06-15T03:22:33.232Z,20.80
2019-06-15T03:25:07.184Z,20.87
2019-06-15T03:27:38.873Z,20.91
2019-06-15T03:30:12.125Z,21.03
2019-06-15T03:32:45.482Z,21.04
2019-06-15T03:35:19.289Z,21.07
2019-06-15T03:37:51.648Z,21.12
2019-06-15T03:40:23.545Z,21.14
2019-06-15T03:42:56.767Z,21.15
2019-06-15T03:45:29.396Z,21.22
2019-06-15T03:48:01.057Z,21.28
2019-06-15T03:50:32.941Z,21.37
2019-06-15T03:53:05.249Z,21.46
2019-06-15T03:55:40.325Z,21.56
2019-06-15T03:58:11.276Z,21.64
2019-06-15T04:01:03.534Z,21.68
2019-06-15T04:03:35.182Z,21.74
2019-06-15T04:06:08.489Z,21.82
2019-06-15T04:08:40.173Z,21.94
2019-06-15T04:11:12.340Z,21.97
2019-06-15T04:13:44.780Z,22.03
2019-06-15T04:16:17.685Z,21.99
2019-06-15T04:18:49.440Z,21.98
2019-06-15T04:21:21.273Z,22.00
2019-06-15T04:23:54.085Z,21.98
2019-06-15T04:26:35.566Z,22.05
2019-06-15T04:29:00.684Z,21.96
2019-06-15T04:31:34.567Z,22.02
2019-06-15T04:34:06.819Z,22.08
2019-06-15T04:36:38.843Z,22.15
2019-06-15T04:39:12.112Z,22.21
2019-06-15T04:41:45.288Z,22.32
2019-06-15T04:44:17.034Z,22.31
2019-06-15T04:46:48.832Z,22.42
2019-06-15T04:49:20.435Z,22.51
2019-06-15T04:51:52.644Z,22.56
2019-06-15T04:54:26.056Z,22.62
2019-06-15T04:56:57.846Z,22.62
2019-06-15T04:59:31.226Z,22.77
2019-06-15T05:02:04.608Z,22.86
2019-06-15T05:04:36.456Z,22.93
2019-06-15T05:07:09.910Z,22.97
2019-06-15T05:09:41.679Z,23.09
2019-06-15T05:12:16.413Z,23.10
2019-06-15T05:14:48.167Z,23.19
2019-06-15T05:17:20.039Z,23.23
2019-06-15T05:19:51.859Z,23.28
2019-06-15T05:22:24.208Z,23.40
2019-06-15T05:24:56.021Z,23.47
2019-06-15T05:27:29.516Z,23.47
2019-06-15T05:30:02.007Z,23.63
2019-06-15T05:32:36.114Z,23.69
2019-06-15T05:35:07.737Z,23.79
2019-06-15T05:37:39.419Z,23.93
2019-06-15T05:40:11.152Z,23.99
2019-06-15T05:42:44.967Z,24.21
2019-06-15T05:45:16.904Z,24.33
2019-06-15T05:47:48.518Z,24.53
2019-06-15T05:50:20.626Z,24.52
2019-06-15T05:52:52.730Z,24.52
2019-06-15T05:55:24.347Z,24.68
2019-06-15T05:57:57.425Z,24.82
2019-06-15T06:00:29.659Z,24.97
2019-06-15T06:03:02.218Z,25.10
2019-06-15T06:05:33.784Z,25.24
2019-06-15T06:08:05.587Z,25.23
2019-06-15T06:10:37.330Z,25.37
2019-06-15T06:13:09.840Z,25.32
2019-06-15T06:15:41.476Z,25.49
2019-06-15T06:18:13.359Z,25.68
2019-06-15T06:20:45.556Z,25.72
2019-06-15T06:23:17.264Z,25.58
2019-06-15T06:25:48.963Z,25.56
2019-06-15T06:28:21.261Z,25.69
2019-06-15T06:30:53.735Z,25.84
2019-06-15T06:33:26.113Z,25.97
2019-06-15T06:36:00.070Z,25.93
2019-06-15T06:38:33.283Z,26.05
2019-06-15T06:41:05.113Z,26.10
2019-06-15T06:43:36.829Z,26.29
2019-06-15T06:46:09.655Z,26.37
2019-06-15T06:48:43.138Z,26.43
2019-06-15T06:51:15.913Z,26.48
2019-06-15T06:53:50.063Z,26.33
2019-06-15T06:56:21.837Z,26.45
2019-06-15T06:58:53.622Z,26.59
2019-06-15T07:01:25.462Z,26.20
2019-06-15T07:03:58.432Z,26.16
2019-06-15T07:06:30.326Z,25.90
2019-06-15T07:09:02.262Z,25.78
2019-06-15T07:11:34.792Z,25.74
2019-06-15T07:14:06.573Z,25.46
2019-06-15T07:16:38.961Z,25.21
2019-06-15T07:19:11.180Z,25.15
2019-06-15T07:21:42.811Z,25.33
2019-06-15T07:24:14.965Z,25.39
2019-06-15T07:26:46.804Z,25.33
2019-06-15T07:29:18.514Z,25.33
2019-06-15T07:31:51.723Z,25.40
2019-06-15T07:34:24.258Z,25.40
2019-06-15T07:36:56.010Z,25.49
2019-06-15T07:39:27.684Z,25.56
2019-06-15T07:42:01.515Z,25.68
2019-06-15T07:44:33.325Z,25.70
2019-06-15T07:47:05.132Z,25.83
2019-06-15T07:49:37.404Z,25.74
2019-06-15T07:52:09.231Z,25.77
2019-06-15T07:54:40.884Z,25.87
2019-06-15T07:57:12.874Z,25.91
2019-06-15T07:59:45.200Z,26.09
2019-06-15T08:02:16.945Z,26.02
2019-06-15T08:04:48.621Z,25.95
2019-06-15T08:07:20.455Z,26.00
2019-06-15T08:09:52.655Z,26.03
2019-06-15T08:12:24.759Z,26.09
2019-06-15T08:14:56.681Z,26.24
2019-06-15T08:17:28.872Z,26.28
2019-06-15T08:20:01.158Z,26.09
2019-06-15T08:22:33.041Z,26.19
2019-06-15T08:25:04.969Z,26.23
2019-06-15T08:27:37.161Z,26.34
2019-06-15T08:30:10.688Z,26.51
2019-06-15T08:32:43.579Z,26.55
2019-06-15T08:35:15.956Z,26.60
2019-06-15T08:37:47.810Z,26.50
2019-06-15T08:40:19.774Z,26.51
2019-06-15T08:42:52.304Z,26.86
2019-06-15T08:45:25.403Z,26.95
2019-06-15T08:48:01.591Z,27.12
2019-06-15T08:50:33.443Z,27.57
2019-06-15T08:53:05.319Z,28.10
2019-06-15T08:55:37.691Z,28.56
2019-06-15T08:58:11.540Z,28.81
2019-06-15T09:00:45.647Z,29.32
2019-06-15T09:03:18.669Z,29.32
2019-06-15T09:05:50.502Z,29.56
2019-06-15T09:08:24.452Z,29.20
2019-06-15T09:10:56.270Z,28.94
2019-06-15T09:13:28.487Z,28.75
2019-06-15T09:16:00.624Z,28.60
2019-06-15T09:18:32.529Z,28.71
2019-06-15T09:21:04.253Z,28.78
2019-06-15T09:23:35.895Z,28.55
2019-06-15T09:26:07.621Z,28.69
2019-06-15T09:28:41.954Z,28.77
2019-06-15T09:31:13.918Z,29.40
2019-06-15T09:33:45.630Z,29.65
2019-06-15T09:36:17.541Z,29.82
2019-06-15T09:38:51.306Z,29.72
2019-06-15T09:41:25.598Z,29.88
2019-06-15T09:43:57.389Z,29.84
2019-06-15T09:46:29.141Z,29.62
2019-06-15T09:49:00.960Z,29.94
2019-06-15T09:51:32.738Z,29.81
2019-06-15T09:54:04.782Z,29.81
2019-06-15T09:56:37.278Z,30.07
2019-06-15T09:59:25.265Z,30.14
2019-06-15T10:01:45.710Z,30.13
2019-06-15T10:04:17.409Z,29.94
2019-06-15T10:06:50.335Z,30.13
2019-06-15T10:09:22.045Z,30.18
2019-06-15T10:11:53.886Z,29.92
2019-06-15T10:14:25.555Z,29.89
2019-06-15T10:16:58.063Z,30.30
2019-06-15T10:19:29.864Z,30.30
2019-06-15T10:22:01.732Z,30.03
2019-06-15T10:24:33.514Z,29.92
2019-06-15T10:27:06.057Z,30.25
2019-06-15T10:29:42.100Z,30.36
2019-06-15T10:32:11.576Z,30.28
2019-06-15T10:34:43.465Z,30.45
2019-06-15T10:37:15.078Z,30.86
2019-06-15T10:39:46.864Z,30.96
2019-06-15T10:42:18.530Z,31.05
2019-06-15T10:44:50.874Z,31.53
2019-06-15T10:47:22.552Z,31.64
2019-06-15T10:49:54.433Z,31.43
2019-06-15T10:52:26.100Z,31.63
2019-06-15T10:55:00.482Z,31.59
2019-06-15T10:57:32.365Z,31.15
2019-06-15T11:00:04.356Z,31.50
2019-06-15T11:02:36.214Z,31.36
2019-06-15T11:05:08.879Z,31.78
2019-06-15T11:07:40.516Z,31.73
2019-06-15T11:10:15.167Z,31.33
2019-06-15T11:12:47.770Z,31.37
2019-06-15T11:15:22.916Z,30.93
2019-06-15T11:17:55.943Z,30.40
2019-06-15T11:20:27.828Z,30.55
2019-06-15T11:23:00.666Z,30.99
2019-06-15T11:25:32.375Z,31.15
2019-06-15T11:28:04.347Z,31.49
2019-06-15T11:30:36.950Z,31.69
2019-06-15T11:33:10.420Z,31.66
2019-06-15T11:35:43.595Z,31.87
2019-06-15T11:38:15.484Z,31.91
2019-06-15T11:40:47.989Z,31.97
2019-06-15T11:43:19.745Z,32.12
2019-06-15T11:45:53.402Z,32.50
2019-06-15T11:48:26.673Z,32.46
2019-06-15T11:50:58.700Z,31.90
2019-06-15T11:53:30.469Z,31.58
2019-06-15T11:56:03.537Z,31.84
2019-06-15T11:58:35.418Z,31.77
2019-06-15T12:01:07.230Z,31.95
2019-06-15T12:03:39.594Z,32.19
2019-06-15T12:06:11.633Z,32.26
2019-06-15T12:08:43.658Z,32.44
2019-06-15T12:11:15.340Z,32.39
2019-06-15T12:13:48.367Z,32.55
2019-06-15T12:16:21.474Z,33.02
2019-06-15T12:18:54.461Z,32.91
2019-06-15T12:21:26.079Z,32.75
2019-06-15T12:23:57.870Z,32.90
2019-06-15T12:26:32.441Z,32.78
2019-06-15T12:29:07.597Z,32.49
2019-06-15T12:31:38.162Z,32.35
2019-06-15T12:34:10.446Z,32.34
2019-06-15T12:36:43.505Z,32.07
2019-06-15T12:39:16.311Z,31.28
2019-06-15T12:41:48.130Z,31.77
2019-06-15T12:44:19.979Z,32.08
2019-06-15T12:46:52.198Z,31.94
2019-06-15T12:49:24.571Z,31.85
2019-06-15T12:51:56.846Z,31.05
2019-06-15T12:54:29.020Z,31.37
2019-06-15T12:57:00.726Z,31.41
2019-06-15T12:59:32.712Z,31.39
2019-06-15T13:02:04.487Z,30.83
2019-06-15T13:04:37.395Z,30.89
2019-06-15T13:07:09.201Z,30.98
2019-06-15T13:09:41.107Z,30.63
2019-06-15T13:12:13.527Z,30.40
2019-06-15T13:14:46.075Z,30.32
2019-06-15T13:17:17.961Z,30.47
2019-06-15T13:19:50.394Z,30.44
2019-06-15T13:22:22.683Z,30.27
2019-06-15T13:24:54.508Z,30.38
2019-06-15T13:27:26.817Z,30.24
2019-06-15T13:29:58.643Z,30.30
2019-06-15T13:32:32.859Z,30.62
2019-06-15T13:35:04.946Z,30.21
2019-06-15T13:37:42.163Z,30.42
2019-06-15T13:40:10.160Z,30.42
2019-06-15T13:42:43.567Z,30.42
2019-06-15T13:45:15.910Z,30.42
2019-06-15T13:47:47.556Z,30.40
2019-06-15T13:50:20.117Z,30.24
2019-06-15T13:52:52.416Z,30.27
2019-06-15T13:55:24.247Z,29.85
2019-06-15T13:57:57.310Z,29.85
2019-06-15T14:00:29.103Z,30.19
2019-06-15T14:03:03.505Z,29.95
2019-06-15T14:05:35.506Z,29.98
2019-06-15T14:08:08.821Z,30.05
2019-06-15T14:10:40.804Z,30.21
2019-06-15T14:13:12.601Z,30.22
2019-06-15T14:15:44.369Z,30.46
2019-06-15T14:18:16.087Z,30.63
2019-06-15T14:20:48.903Z,30.60
2019-06-15T14:23:21.792Z,30.06
2019-06-15T14:25:54.526Z,30.03
2019-06-15T14:28:27.610Z,29.98
2019-06-15T14:30:59.384Z,29.87
2019-06-15T14:33:31.742Z,29.50
2019-06-15T14:36:04.052Z,29.53
2019-06-15T14:38:35.938Z,29.54
2019-06-15T14:41:07.999Z,29.69
2019-06-15T14:43:42.111Z,29.51
2019-06-15T14:46:13.934Z,29.47
2019-06-15T14:48:45.789Z,29.44
2019-06-15T14:51:17.591Z,29.56
2019-06-15T14:53:56.297Z,29.40
2019-06-15T14:56:28.339Z,29.36
2019-06-15T14:59:01.307Z,29.03
2019-06-15T15:01:35.073Z,28.75
2019-06-15T15:04:06.685Z,28.68
2019-06-15T15:06:38.768Z,28.30
2019-06-15T15:09:13.660Z,28.16
2019-06-15T15:11:48.695Z,28.24
2019-06-15T15:14:20.403Z,28.35
2019-06-15T15:16:52.317Z,28.49
2019-06-15T15:19:27.138Z,28.70
2019-06-15T15:22:00.809Z,28.77
2019-06-15T15:24:33.333Z,28.87
2019-06-15T15:27:05.351Z,28.70
2019-06-15T15:29:37.251Z,28.90
2019-06-15T15:32:21.651Z,28.75
2019-06-15T15:34:44.095Z,28.87
2019-06-15T15:37:16.011Z,28.75
2019-06-15T15:39:47.716Z,28.36
2019-06-15T15:42:19.720Z,28.52
2019-06-15T15:44:51.682Z,28.03
2019-06-15T15:47:27.051Z,27.86
2019-06-15T15:50:00.651Z,27.85
2019-06-15T15:52:37.195Z,27.84
2019-06-15T15:55:09.458Z,27.85
2019-06-15T15:57:41.338Z,27.62
2019-06-15T16:00:20.061Z,27.73
2019-06-15T16:02:56.544Z,27.87
2019-06-15T16:05:28.788Z,27.76
2019-06-15T16:08:01.187Z,27.86
2019-06-15T16:10:32.953Z,27.73
2019-06-15T16:13:06.515Z,27.62
2019-06-15T16:15:38.510Z,27.49
2019-06-15T16:18:10.931Z,27.44
2019-06-15T16:20:42.614Z,27.20
2019-06-15T16:23:16.107Z,27.26
2019-06-15T16:25:48.322Z,27.31
2019-06-15T16:28:20.225Z,27.38
2019-06-15T16:31:09.219Z,27.17
2019-06-15T16:33:26.746Z,27.08
2019-06-15T16:35:59.570Z,27.08
2019-06-15T16:38:32.600Z,27.06
2019-06-15T16:41:04.576Z,27.05
2019-06-15T16:43:42.574Z,27.04
2019-06-15T16:46:17.217Z,27.02
2019-06-15T16:48:49.417Z,26.98
2019-06-15T16:51:21.240Z,26.88
2019-06-15T16:53:53.147Z,26.72
2019-06-15T16:56:26.822Z,26.77
2019-06-15T16:58:58.546Z,26.79
2019-06-15T17:01:30.403Z,26.80
2019-06-15T17:04:06.152Z,26.92
2019-06-15T17:06:40.827Z,26.96
2019-06-15T17:09:16.839Z,26.90
2019-06-15T17:11:49.162Z,26.80
2019-06-15T17:14:20.947Z,26.74
2019-06-15T17:16:53.817Z,26.72
2019-06-15T17:19:27.095Z,26.66
2019-06-15T17:22:14.750Z,26.57
2019-06-15T17:24:36.943Z,26.44
2019-06-15T17:27:08.872Z,26.36
2019-06-15T17:29:42.406Z,26.18
2019-06-15T17:32:17.151Z,26.00
2019-06-15T17:34:49.071Z,25.89
2019-06-15T17:37:20.814Z,25.88
2019-06-15T17:39:52.778Z,25.97
2019-06-15T17:42:26.053Z,25.91
2019-06-15T17:44:57.934Z,25.88
2019-06-15T17:47:29.677Z,25.82
2019-06-15T17:50:01.562Z,25.80
2019-06-15T17:52:36.045Z,25.80
2019-06-15T17:55:10.118Z,25.85
2019-06-15T17:57:42.438Z,25.78
2019-06-15T18:00:16.563Z,25.67
2019-06-15T18:02:48.785Z,25.62
2019-06-15T18:05:21.135Z,25.47
2019-06-15T18:07:52.941Z,25.46
2019-06-15T18:10:26.762Z,25.36
2019-06-15T18:12:59.219Z,25.35
2019-06-15T18:15:31.176Z,25.31
2019-06-15T18:18:02.952Z,25.33
2019-06-15T18:20:36.446Z,25.27
2019-06-15T18:23:08.233Z,25.18
2019-06-15T18:25:40.149Z,25.13
2019-06-15T18:28:12.091Z,25.08
2019-06-15T18:30:46.448Z,24.98
2019-06-15T18:33:17.495Z,24.97
2019-06-15T18:35:49.220Z,24.89
2019-06-15T18:38:38.599Z,24.87
2019-06-15T18:41:10.476Z,24.72
2019-06-15T18:43:42.427Z,24.67
2019-06-15T18:46:14.239Z,24.67
2019-06-15T18:48:47.109Z,24.63
2019-06-15T18:51:20.644Z,24.58
2019-06-15T18:53:52.451Z,24.49
2019-06-15T18:56:26.953Z,24.33
2019-06-15T18:58:58.484Z,24.30
2019-06-15T19:01:30.383Z,24.18
2019-06-15T19:04:02.830Z,24.09
2019-06-15T19:06:37.041Z,24.02
2019-06-15T19:09:11.640Z,23.85
2019-06-15T19:11:43.542Z,23.88
2019-06-15T19:14:16.544Z,23.76
2019-06-15T19:16:49.489Z,23.68
2019-06-15T19:19:21.188Z,23.64
2019-06-15T19:21:52.991Z,23.59
2019-06-15T19:24:26.061Z,23.61
2019-06-15T19:26:58.375Z,23.63
2019-06-15T19:29:31.277Z,23.58
2019-06-15T19:32:03.493Z,23.55
2019-06-15T19:34:44.320Z,23.54
2019-06-15T19:37:09.010Z,23.52
2019-06-15T19:39:42.047Z,23.39
2019-06-15T19:42:13.947Z,23.33
2019-06-15T19:44:45.835Z,23.33
2019-06-15T19:47:17.917Z,23.33
2019-06-15T19:49:49.841Z,23.38
2019-06-15T19:52:21.719Z,23.37
2019-06-15T19:54:54.115Z,23.37
2019-06-15T19:57:27.147Z,23.31
2019-06-15T19:59:59.497Z,23.35
2019-06-15T20:02:31.428Z,23.39
2019-06-15T20:05:04.001Z,23.35
2019-06-15T20:07:36.896Z,23.30
2019-06-15T20:10:10.681Z,23.30
2019-06-15T20:12:42.865Z,23.19
2019-06-15T20:15:16.839Z,23.12
2019-06-15T20:17:48.287Z,23.14
2019-06-15T20:20:26.668Z,23.14
2019-06-15T20:22:57.923Z,23.23
2019-06-15T20:25:30.461Z,23.24
2019-06-15T20:28:02.358Z,23.25
2019-06-15T20:30:36.716Z,23.17
2019-06-15T20:33:08.153Z,23.11
2019-06-15T20:35:40.187Z,23.03
2019-06-15T20:38:12.041Z,23.02
2019-06-15T20:40:43.884Z,22.85
2019-06-15T20:43:17.058Z,22.70
2019-06-15T20:45:49.694Z,22.58
2019-06-15T20:48:21.368Z,22.57
2019-06-15T20:50:53.150Z,22.44
2019-06-15T20:53:25.062Z,22.40
2019-06-15T20:55:57.196Z,22.39
2019-06-15T20:58:29.006Z,22.34
2019-06-15T21:01:01.464Z,22.17
2019-06-15T21:03:36.461Z,22.13
2019-06-15T21:06:07.287Z,22.12
2019-06-15T21:08:39.152Z,21.97
2019-06-15T21:11:11.033Z,21.85
2019-06-15T21:13:42.767Z,21.72
2019-06-15T21:16:19.800Z,21.58
2019-06-15T21:18:51.741Z,21.55
2019-06-15T21:21:23.429Z,21.58
2019-06-15T21:23:56.929Z,21.55
2019-06-15T21:26:29.734Z,21.53
2019-06-15T21:29:01.415Z,21.51
2019-06-15T21:31:33.817Z,21.45
2019-06-15T21:34:07.057Z,21.37
2019-06-15T21:36:38.720Z,21.41
2019-06-15T21:39:10.693Z,21.46
2019-06-15T21:41:42.402Z,21.40
2019-06-15T21:44:16.646Z,21.38
2019-06-15T21:46:50.124Z,21.38
2019-06-15T21:49:21.859Z,21.42
2019-06-15T21:51:53.561Z,21.43
2019-06-15T21:54:26.738Z,21.42
2019-06-15T21:57:00.067Z,21.39
2019-06-15T21:59:31.721Z,21.50
2019-06-15T22:02:03.834Z,21.38
2019-06-15T22:04:37.162Z,21.32
2019-06-15T22:07:08.892Z,21.22
2019-06-15T22:09:40.591Z,21.30
2019-06-15T22:12:12.384Z,21.27
2019-06-15T22:14:46.500Z,21.19
2019-06-15T22:17:17.570Z,21.17
2019-06-15T22:19:49.323Z,21.09
2019-06-15T22:22:21.071Z,21.06
2019-06-15T22:24:52.925Z,21.01
2019-06-15T22:27:25.213Z,21.03
2019-06-15T22:29:57.028Z,21.14
2019-06-15T22:32:30.318Z,21.15
2019-06-15T22:35:03.483Z,21.17
2019-06-15T22:37:35.930Z,21.10
2019-06-15T22:40:08.328Z,21.06
2019-06-15T22:42:40.171Z,21.10
2019-06-15T22:45:12.998Z,21.08
2019-06-15T22:47:46.801Z,21.14
2019-06-15T22:50:21.326Z,21.07
2019-06-15T22:52:53.199Z,21.10
2019-06-15T22:55:26.110Z,21.00
2019-06-15T22:57:58.117Z,20.99
2019-06-15T23:00:30.010Z,21.11
2019-06-15T23:03:01.987Z,21.07
2019-06-15T23:05:33.844Z,21.07
2019-06-15T23:08:07.010Z,20.98
2019-06-15T23:10:39.202Z,20.92
2019-06-15T23:13:11.824Z,20.95
2019-06-15T23:15:46.311Z,20.89
2019-06-15T23:18:17.334Z,20.93
2019-06-15T23:20:49.462Z,20.94
2019-06-15T23:23:21.183Z,20.84
2019-06-15T23:25:53.591Z,20.78
2019-06-15T23:28:27.083Z,20.74
2019-06-15T23:30:59.060Z,20.78
2019-06-15T23:33:31.043Z,20.76
2019-06-15T23:36:07.664Z,20.70
2019-06-15T23:38:39.445Z,20.67
2019-06-15T23:41:11.234Z,20.69
2019-06-15T23:43:42.974Z,20.67
2019-06-15T23:46:16.051Z,20.59
2019-06-15T23:48:48.113Z,20.56
2019-06-15T23:51:19.929Z,20.50
2019-06-15T23:53:51.704Z,20.43
2019-06-15T23:56:25.892Z,20.46
2019-06-15T23:58:56.890Z,20.35
